createdAt,value
2023-01-19T00:00:02.017Z,-3.17
2023-01-19T00:02:28.431Z,-3.20
2023-01-19T00:04:54.889Z,-3.23
2023-01-19T00:07:21.301Z,-3.30
2023-01-19T00:09:47.698Z,-3.34
2023-01-19T00:12:14.103Z,-3.31
2023-01-19T00:14:40.506Z,-3.31
2023-01-19T00:17:07.363Z,-3.34
2023-01-19T00:19:33.760Z,-3.35
2023-01-19T00:22:00.180Z,-3.35
2023-01-19T00:24:26.587Z,-3.40
2023-01-19T00:26:52.999Z,-3.39
2023-01-19T00:29:20.365Z,-3.37
2023-01-19T00:31:46.788Z,-3.39
2023-01-19T00:34:13.209Z,-3.40
2023-01-19T00:36:39.629Z,-3.43
2023-01-19T00:39:06.033Z,-3.45
2023-01-19T00:41:50.945Z,-3.45
2023-01-19T00:44:17.391Z,-3.47
2023-01-19T00:46:43.787Z,-3.44
2023-01-19T00:49:10.418Z,-3.45
2023-01-19T00:51:36.982Z,-3.46
2023-01-19T00:54:04.973Z,-3.45
2023-01-19T00:56:32.169Z,-3.50
2023-01-19T00:58:59.613Z,-3.54
2023-01-19T01:01:45.249Z,-3.57
2023-01-19T01:04:14.209Z,-3.63
2023-01-19T01:06:40.757Z,-3.70
2023-01-19T01:09:12.041Z,-3.69
2023-01-19T01:11:39.925Z,-3.69
2023-01-19T01:14:07.294Z,-3.70
2023-01-19T01:16:33.935Z,-3.73
2023-01-19T01:19:00.637Z,-3.77
2023-01-19T01:21:27.312Z,-3.78
2023-01-19T01:23:53.756Z,-3.78
2023-01-19T01:26:20.566Z,-3.78
2023-01-19T01:28:47.118Z,-3.79
2023-01-19T01:31:13.554Z,-3.75
2023-01-19T01:33:41.923Z,-3.76
2023-01-19T01:36:10.174Z,-3.79
2023-01-19T01:38:36.686Z,-3.81
2023-01-19T01:41:03.685Z,-3.87
2023-01-19T01:43:54.966Z,-3.90
2023-01-19T01:46:21.456Z,-3.89
2023-01-19T01:49:03.232Z,-3.88
2023-01-19T01:51:32.177Z,-3.90
2023-01-19T01:54:03.415Z,-3.88
2023-01-19T01:56:37.572Z,-3.85
2023-01-19T01:59:11.920Z,-3.87
2023-01-19T02:01:57.511Z,-3.82
2023-01-19T02:04:24.506Z,-3.78
2023-01-19T02:07:09.406Z,-3.81
2023-01-19T02:09:56.143Z,-3.81
2023-01-19T02:12:42.059Z,-3.81
2023-01-19T02:15:16.629Z,-3.83
2023-01-19T02:17:43.315Z,-3.82
2023-01-19T02:20:10.690Z,-3.82
2023-01-19T02:22:46.349Z,-3.81
2023-01-19T02:25:13.020Z,-3.78
2023-01-19T02:27:39.536Z,-3.78
2023-01-19T02:30:07.392Z,-3.73
2023-01-19T02:32:33.861Z,-3.73
2023-01-19T02:35:00.328Z,-3.79
2023-01-19T02:37:32.680Z,-3.80
2023-01-19T02:40:02.623Z,-3.80
2023-01-19T02:42:39.750Z,-3.82
2023-01-19T02:45:09.476Z,-3.83
2023-01-19T02:47:40.728Z,-3.89
2023-01-19T02:50:39.247Z,-3.91
2023-01-19T02:53:19.279Z,-3.92
2023-01-19T02:55:53.649Z,-3.98
2023-01-19T02:58:40.455Z,-4.00
2023-01-19T03:01:27.648Z,-4.05
2023-01-19T03:03:55.855Z,-4.08
2023-01-19T03:06:29.842Z,-4.10
2023-01-19T03:09:03.224Z,-4.15
2023-01-19T03:11:38.308Z,-4.18
2023-01-19T03:14:11.281Z,-4.18
2023-01-19T03:16:51.406Z,-4.20
2023-01-19T03:19:23.607Z,-4.19
2023-01-19T03:21:55.034Z,-4.21
2023-01-19T03:24:24.886Z,-4.25
2023-01-19T03:26:59.088Z,-4.25
2023-01-19T03:29:29.985Z,-4.24
2023-01-19T03:31:59.696Z,-4.26
2023-01-19T03:34:28.463Z,-4.20
2023-01-19T03:37:00.971Z,-4.24
2023-01-19T03:39:28.818Z,-4.21
2023-01-19T03:41:59.741Z,-4.14
2023-01-19T03:44:28.443Z,-4.11
2023-01-19T03:46:56.849Z,-4.09
2023-01-19T03:49:23.332Z,-4.09
2023-01-19T03:51:49.886Z,-4.11
2023-01-19T03:54:16.289Z,-4.13
2023-01-19T03:56:43.733Z,-4.16
2023-01-19T03:59:10.122Z,-4.15
2023-01-19T04:01:36.698Z,-4.14
2023-01-19T04:04:03.175Z,-4.12
2023-01-19T04:06:29.608Z,-4.10
2023-01-19T04:08:56.058Z,-4.08
2023-01-19T04:11:22.543Z,-4.03
2023-01-19T04:13:48.953Z,-4.02
2023-01-19T04:16:20.053Z,-3.98
2023-01-19T04:18:47.292Z,-3.80
2023-01-19T04:21:13.844Z,-3.79
2023-01-19T04:23:40.230Z,-3.75
2023-01-19T04:26:08.625Z,-3.77
2023-01-19T04:28:37.012Z,-3.73
2023-01-19T04:31:05.169Z,-3.73
2023-01-19T04:33:31.919Z,-3.73
2023-01-19T04:35:58.381Z,-3.74
2023-01-19T04:38:25.566Z,-3.70
2023-01-19T04:40:52.960Z,-3.67
2023-01-19T04:43:20.255Z,-3.68
2023-01-19T04:45:47.689Z,-3.72
2023-01-19T04:48:14.512Z,-3.76
2023-01-19T04:50:41.962Z,-3.77
2023-01-19T04:53:08.873Z,-3.78
2023-01-19T04:55:35.277Z,-3.84
2023-01-19T04:58:01.667Z,-3.89
2023-01-19T05:00:28.175Z,-3.91
2023-01-19T05:02:54.806Z,-3.92
2023-01-19T05:05:21.537Z,-3.93
2023-01-19T05:07:48.050Z,-3.88
2023-01-19T05:10:14.575Z,-3.93
2023-01-19T05:12:42.185Z,-3.96
2023-01-19T05:15:09.642Z,-3.94
2023-01-19T05:17:36.391Z,-3.96
2023-01-19T05:20:04.182Z,-3.96
2023-01-19T05:22:30.604Z,-4.01
2023-01-19T05:24:57.011Z,-4.00
2023-01-19T05:27:23.403Z,-3.95
2023-01-19T05:29:49.792Z,-3.91
2023-01-19T05:32:16.151Z,-3.88
2023-01-19T05:34:42.532Z,-3.86
2023-01-19T05:37:08.955Z,-3.81
2023-01-19T05:39:35.337Z,-3.79
2023-01-19T05:42:01.699Z,-3.80
2023-01-19T05:44:28.039Z,-3.71
2023-01-19T05:46:54.462Z,-3.71
2023-01-19T05:49:20.885Z,-3.71
2023-01-19T05:51:47.355Z,-3.74
2023-01-19T05:54:15.341Z,-3.72
2023-01-19T05:56:42.591Z,-3.67
2023-01-19T05:59:09.160Z,-3.59
2023-01-19T06:01:38.774Z,-3.57
2023-01-19T06:04:06.154Z,-3.54
2023-01-19T06:06:32.651Z,-3.50
2023-01-19T06:08:59.009Z,-3.48
2023-01-19T06:11:26.124Z,-3.47
2023-01-19T06:13:52.867Z,-3.47
2023-01-19T06:16:19.471Z,-3.52
2023-01-19T06:18:46.080Z,-3.50
2023-01-19T06:21:14.235Z,-3.47
2023-01-19T06:23:41.048Z,-3.48
2023-01-19T06:26:07.743Z,-3.49
2023-01-19T06:28:34.180Z,-3.48
2023-01-19T06:31:01.045Z,-3.48
2023-01-19T06:33:28.048Z,-3.52
2023-01-19T06:35:55.301Z,-3.54
2023-01-19T06:38:22.104Z,-3.53
2023-01-19T06:40:58.478Z,-3.50
2023-01-19T06:43:25.941Z,-3.45
2023-01-19T06:45:52.626Z,-3.52
2023-01-19T06:48:19.213Z,-3.55
2023-01-19T06:50:46.464Z,-3.56
2023-01-19T06:53:16.253Z,-3.56
2023-01-19T06:55:43.932Z,-3.60
2023-01-19T06:58:10.974Z,-3.63
2023-01-19T07:00:37.769Z,-3.65
2023-01-19T07:03:07.459Z,-3.66
2023-01-19T07:05:37.029Z,-3.66
2023-01-19T07:08:04.159Z,-3.65
2023-01-19T07:11:25.848Z,-3.62
2023-01-19T07:13:17.565Z,-3.56
2023-01-19T07:15:44.102Z,-3.49
2023-01-19T07:18:10.539Z,-3.46
2023-01-19T07:20:38.157Z,-3.39
2023-01-19T07:23:04.755Z,-3.34
2023-01-19T07:25:31.152Z,-3.35
2023-01-19T07:28:01.581Z,-3.33
2023-01-19T07:30:28.644Z,-3.29
2023-01-19T07:32:57.287Z,-3.29
2023-01-19T07:35:27.008Z,-3.21
2023-01-19T07:37:53.357Z,-3.15
2023-01-19T07:40:19.764Z,-3.12
2023-01-19T07:42:50.506Z,-3.09
2023-01-19T07:45:17.912Z,-3.06
2023-01-19T07:47:45.190Z,-3.04
2023-01-19T07:50:13.699Z,-3.00
2023-01-19T07:52:40.219Z,-2.99
2023-01-19T07:55:07.585Z,-2.95
2023-01-19T07:57:34.477Z,-2.95
2023-01-19T08:00:01.008Z,-2.85
2023-01-19T08:02:27.443Z,-2.79
2023-01-19T08:04:53.878Z,-2.77
2023-01-19T08:07:20.325Z,-2.78
2023-01-19T08:09:46.814Z,-2.73
2023-01-19T08:12:13.196Z,-2.66
2023-01-19T08:14:39.674Z,-2.70
2023-01-19T08:17:06.057Z,-2.54
2023-01-19T08:19:32.535Z,-2.43
2023-01-19T08:21:59.891Z,-2.34
2023-01-19T08:24:29.055Z,-2.26
2023-01-19T08:27:03.477Z,-2.15
2023-01-19T08:29:33.751Z,-2.12
2023-01-19T08:32:02.202Z,-2.06
2023-01-19T08:34:30.986Z,-2.09
2023-01-19T08:36:58.388Z,-2.11
2023-01-19T08:39:25.444Z,-2.11
2023-01-19T08:41:52.463Z,-2.15
2023-01-19T08:44:18.863Z,-2.14
2023-01-19T08:46:45.363Z,-2.17
2023-01-19T08:49:11.862Z,-2.21
2023-01-19T08:51:38.252Z,-2.22
2023-01-19T08:54:05.051Z,-2.14
2023-01-19T08:56:31.654Z,-2.16
2023-01-19T08:59:08.561Z,-2.14
2023-01-19T09:01:37.136Z,-2.15
2023-01-19T09:04:03.801Z,-2.07
2023-01-19T09:06:30.182Z,-2.05
2023-01-19T09:08:57.467Z,-2.01
2023-01-19T09:11:23.964Z,-1.98
2023-01-19T09:13:50.641Z,-1.96
2023-01-19T09:16:17.536Z,-1.87
2023-01-19T09:18:45.684Z,-1.77
2023-01-19T09:21:12.382Z,-1.83
2023-01-19T09:23:38.780Z,-1.80
2023-01-19T09:26:05.957Z,-1.71
2023-01-19T09:28:33.249Z,-1.59
2023-01-19T09:30:59.994Z,-1.34
2023-01-19T09:33:26.575Z,-1.26
2023-01-19T09:35:53.007Z,-1.04
2023-01-19T09:38:23.887Z,-0.79
2023-01-19T09:40:53.724Z,-0.54
2023-01-19T09:43:41.311Z,-0.26
2023-01-19T09:46:17.190Z,-0.02
2023-01-19T09:48:51.573Z,-0.02
2023-01-19T09:51:36.228Z,0.05
2023-01-19T09:54:31.149Z,-0.04
2023-01-19T09:56:57.557Z,-0.23
2023-01-19T09:59:24.616Z,-0.30
2023-01-19T10:02:15.813Z,-0.42
2023-01-19T10:04:52.848Z,-0.31
2023-01-19T10:07:53.146Z,-0.43
2023-01-19T10:10:25.957Z,-0.50
2023-01-19T10:13:17.754Z,-0.56
2023-01-19T10:16:03.841Z,-0.64
2023-01-19T10:18:47.432Z,-0.65
2023-01-19T10:21:40.879Z,-0.65
2023-01-19T10:24:17.804Z,-0.64
2023-01-19T10:26:49.718Z,-0.67
2023-01-19T10:29:37.506Z,-0.66
2023-01-19T10:32:21.215Z,-0.71
2023-01-19T10:34:49.180Z,-0.62
2023-01-19T10:37:27.613Z,-0.68
2023-01-19T10:39:57.249Z,-0.65
2023-01-19T10:42:28.842Z,-0.58
2023-01-19T10:44:55.603Z,-0.55
2023-01-19T10:47:34.299Z,-0.61
2023-01-19T10:50:22.063Z,-0.56
2023-01-19T10:52:54.851Z,-0.65
2023-01-19T10:55:33.803Z,-0.68
2023-01-19T10:58:00.765Z,-0.71
2023-01-19T11:00:35.484Z,-0.69
2023-01-19T11:03:02.468Z,-0.74
2023-01-19T11:05:32.287Z,-0.72
2023-01-19T11:07:59.114Z,-0.75
2023-01-19T11:10:27.362Z,-0.73
2023-01-19T11:13:01.331Z,-0.70
2023-01-19T11:16:03.251Z,-0.76
2023-01-19T11:18:38.698Z,-0.76
2023-01-19T11:21:11.443Z,-0.73
2023-01-19T11:23:53.028Z,-0.72
2023-01-19T11:26:40.658Z,-0.67
2023-01-19T11:29:25.390Z,-0.59
2023-01-19T11:31:57.777Z,-0.57
2023-01-19T11:34:33.337Z,-0.47
2023-01-19T11:37:25.022Z,-0.45
2023-01-19T11:39:54.857Z,-0.50
2023-01-19T11:42:22.788Z,-0.45
2023-01-19T11:45:13.029Z,-0.42
2023-01-19T11:47:49.616Z,-0.39
2023-01-19T11:50:40.784Z,-0.30
2023-01-19T11:53:24.736Z,-0.26
2023-01-19T11:56:13.853Z,-0.28
2023-01-19T11:58:43.261Z,-0.24
2023-01-19T12:01:33.096Z,-0.25
2023-01-19T12:04:08.654Z,-0.22
2023-01-19T12:06:42.866Z,-0.09
2023-01-19T12:09:19.210Z,-0.04
2023-01-19T12:11:50.858Z,-0.13
2023-01-19T12:14:23.467Z,-0.18
2023-01-19T12:16:53.502Z,-0.20
2023-01-19T12:19:26.519Z,-0.14
2023-01-19T12:21:53.624Z,-0.10
2023-01-19T12:24:47.092Z,-0.15
2023-01-19T12:27:37.753Z,-0.13
2023-01-19T12:30:05.912Z,-0.09
2023-01-19T12:32:34.408Z,-0.11
2023-01-19T12:35:00.935Z,-0.14
2023-01-19T12:37:27.506Z,-0.13
2023-01-19T12:39:56.514Z,-0.10
2023-01-19T12:42:23.347Z,-0.07
2023-01-19T12:45:06.238Z,-0.06
2023-01-19T12:47:33.760Z,-0.04
2023-01-19T12:50:07.369Z,0.01
2023-01-19T12:52:51.513Z,0.04
2023-01-19T12:55:23.058Z,0.05
2023-01-19T12:57:58.826Z,0.08
2023-01-19T13:00:25.098Z,0.11
2023-01-19T13:02:59.861Z,0.09
2023-01-19T13:05:33.384Z,0.25
2023-01-19T13:08:03.142Z,0.27
2023-01-19T13:11:02.061Z,0.32
2023-01-19T13:13:29.260Z,0.45
2023-01-19T13:15:59.844Z,0.48
2023-01-19T13:18:30.534Z,0.52
2023-01-19T13:21:01.144Z,0.51
2023-01-19T13:23:49.856Z,0.56
2023-01-19T13:26:18.330Z,0.58
2023-01-19T13:28:48.871Z,0.66
2023-01-19T13:31:17.044Z,0.73
2023-01-19T13:33:50.829Z,0.79
2023-01-19T13:36:30.495Z,0.86
2023-01-19T13:39:00.345Z,0.87
2023-01-19T13:41:31.068Z,0.94
2023-01-19T13:44:12.309Z,1.06
2023-01-19T13:46:39.511Z,1.03
2023-01-19T13:49:20.952Z,0.93
2023-01-19T13:52:07.442Z,0.91
2023-01-19T13:54:33.796Z,0.89
2023-01-19T13:57:00.219Z,0.97
2023-01-19T13:59:26.630Z,1.02
2023-01-19T14:02:11.233Z,0.95
2023-01-19T14:04:37.683Z,1.02
2023-01-19T14:07:13.734Z,0.98
2023-01-19T14:09:40.173Z,0.97
2023-01-19T14:12:17.382Z,0.86
2023-01-19T14:14:47.244Z,0.85
2023-01-19T14:17:26.167Z,0.80
2023-01-19T14:19:55.685Z,0.85
2023-01-19T14:22:37.517Z,0.82
2023-01-19T14:25:25.702Z,0.78
2023-01-19T14:27:52.316Z,0.75
2023-01-19T14:30:22.615Z,0.73
2023-01-19T14:32:49.055Z,0.73
2023-01-19T14:35:24.352Z,0.70
2023-01-19T14:37:52.268Z,0.68
2023-01-19T14:40:21.475Z,0.69
2023-01-19T14:43:00.534Z,0.65
2023-01-19T14:45:36.949Z,0.67
2023-01-19T14:48:17.803Z,0.69
2023-01-19T14:50:57.663Z,0.67
2023-01-19T14:53:30.035Z,0.68
2023-01-19T14:56:04.431Z,0.64
2023-01-19T14:58:34.213Z,0.65
2023-01-19T15:01:01.226Z,0.62
2023-01-19T15:03:43.699Z,0.59
2023-01-19T15:06:17.877Z,0.46
2023-01-19T15:08:45.581Z,0.50
2023-01-19T15:11:31.377Z,0.46
2023-01-19T15:13:59.204Z,0.36
2023-01-19T15:16:27.720Z,0.39
2023-01-19T15:18:54.157Z,0.31
2023-01-19T15:21:26.713Z,0.24
2023-01-19T15:23:54.565Z,0.16
2023-01-19T15:26:23.821Z,0.12
2023-01-19T15:28:50.483Z,0.07
2023-01-19T15:31:19.511Z,0.09
2023-01-19T15:33:46.383Z,0.02
2023-01-19T15:36:16.398Z,-0.01
2023-01-19T15:38:44.145Z,-0.02
2023-01-19T15:41:15.333Z,0.05
2023-01-19T15:43:41.788Z,-0.05
2023-01-19T15:46:13.073Z,-0.05
2023-01-19T15:48:39.435Z,-0.15
2023-01-19T15:51:06.027Z,-0.22
2023-01-19T15:53:32.429Z,-0.30
2023-01-19T15:55:58.897Z,-0.34
2023-01-19T15:58:25.398Z,-0.42
2023-01-19T16:00:56.570Z,-0.48
2023-01-19T16:03:23.759Z,-0.50
2023-01-19T16:05:50.143Z,-0.54
2023-01-19T16:08:16.691Z,-0.55
2023-01-19T16:10:43.270Z,-0.56
2023-01-19T16:13:12.548Z,-0.58
2023-01-19T16:15:40.262Z,-0.58
2023-01-19T16:18:06.897Z,-0.60
2023-01-19T16:20:33.392Z,-0.57
2023-01-19T16:23:13.790Z,-0.58
2023-01-19T16:25:41.156Z,-0.56
2023-01-19T16:28:08.294Z,-0.53
2023-01-19T16:30:34.748Z,-0.52
2023-01-19T16:33:01.145Z,-0.50
2023-01-19T16:35:27.522Z,-0.46
2023-01-19T16:37:53.885Z,-0.48
2023-01-19T16:40:20.395Z,-0.46
2023-01-19T16:42:47.314Z,-0.43
2023-01-19T16:45:13.804Z,-0.42
2023-01-19T16:47:40.303Z,-0.41
2023-01-19T16:50:06.912Z,-0.38
2023-01-19T16:52:33.270Z,-0.37
2023-01-19T16:54:59.636Z,-0.40
2023-01-19T16:57:26.045Z,-0.37
2023-01-19T16:59:52.524Z,-0.37
2023-01-19T17:02:18.959Z,-0.38
2023-01-19T17:04:45.649Z,-0.35
2023-01-19T17:07:12.133Z,-0.32
2023-01-19T17:09:38.647Z,-0.27
2023-01-19T17:12:05.274Z,-0.27
2023-01-19T17:14:33.344Z,-0.22
2023-01-19T17:17:02.685Z,-0.23
2023-01-19T17:19:29.121Z,-0.21
2023-01-19T17:21:55.676Z,-0.25
2023-01-19T17:24:22.275Z,-0.24
2023-01-19T17:26:48.970Z,-0.22
2023-01-19T17:29:16.732Z,-0.22
2023-01-19T17:31:44.389Z,-0.21
2023-01-19T17:34:10.829Z,-0.20
2023-01-19T17:36:38.714Z,-0.19
2023-01-19T17:39:07.518Z,-0.21
2023-01-19T17:41:35.512Z,-0.24
2023-01-19T17:44:03.939Z,-0.25
2023-01-19T17:46:30.757Z,-0.23
2023-01-19T17:48:59.739Z,-0.23
2023-01-19T17:51:26.937Z,-0.22
2023-01-19T17:53:54.424Z,-0.26
2023-01-19T17:56:25.794Z,-0.25
2023-01-19T17:58:52.184Z,-0.24
2023-01-19T18:01:24.627Z,-0.27
2023-01-19T18:03:51.228Z,-0.28
2023-01-19T18:06:17.671Z,-0.24
2023-01-19T18:08:46.231Z,-0.26
2023-01-19T18:11:13.984Z,-0.26
2023-01-19T18:13:43.747Z,-0.27
2023-01-19T18:16:14.092Z,-0.28
2023-01-19T18:18:41.062Z,-0.28
2023-01-19T18:21:09.473Z,-0.26
2023-01-19T18:23:36.358Z,-0.27
2023-01-19T18:26:11.218Z,-0.25
2023-01-19T18:28:37.677Z,-0.26
2023-01-19T18:31:08.866Z,-0.26
2023-01-19T18:33:35.649Z,-0.28
2023-01-19T18:36:02.595Z,-0.27
2023-01-19T18:38:29.083Z,-0.25
2023-01-19T18:41:01.679Z,-0.19
2023-01-19T18:43:28.204Z,-0.24
2023-01-19T18:45:54.595Z,-0.26
2023-01-19T18:48:21.057Z,-0.23
2023-01-19T18:50:47.528Z,-0.29
2023-01-19T18:53:13.958Z,-0.31
2023-01-19T18:55:40.396Z,-0.29
2023-01-19T18:58:07.130Z,-0.30
2023-01-19T19:00:33.539Z,-0.30
2023-01-19T19:02:59.971Z,-0.31
2023-01-19T19:05:26.440Z,-0.31
2023-01-19T19:07:52.872Z,-0.32
2023-01-19T19:10:19.336Z,-0.29
2023-01-19T19:12:45.776Z,-0.29
2023-01-19T19:15:12.249Z,-0.29
2023-01-19T19:17:38.619Z,-0.29
2023-01-19T19:20:05.369Z,-0.31
2023-01-19T19:22:34.833Z,-0.32
2023-01-19T19:25:01.238Z,-0.32
2023-01-19T19:27:27.699Z,-0.33
2023-01-19T19:29:54.105Z,-0.36
2023-01-19T19:32:20.943Z,-0.34
2023-01-19T19:34:52.609Z,-0.37
2023-01-19T19:37:19.849Z,-0.34
2023-01-19T19:39:47.861Z,-0.32
2023-01-19T19:42:14.261Z,-0.30
2023-01-19T19:44:40.650Z,-0.32
2023-01-19T19:47:07.110Z,-0.34
2023-01-19T19:49:33.761Z,-0.34
2023-01-19T19:52:01.346Z,-0.33
2023-01-19T19:54:27.766Z,-0.36
2023-01-19T19:56:54.275Z,-0.37
2023-01-19T19:59:20.641Z,-0.36
2023-01-19T20:01:48.447Z,-0.34
2023-01-19T20:04:15.198Z,-0.32
2023-01-19T20:06:44.505Z,-0.36
2023-01-19T20:09:13.876Z,-0.32
2023-01-19T20:11:40.929Z,-0.27
2023-01-19T20:14:08.737Z,-0.27
2023-01-19T20:16:35.758Z,-0.34
2023-01-19T20:19:02.812Z,-0.33
2023-01-19T20:21:31.887Z,-0.34
2023-01-19T20:24:04.330Z,-0.32
2023-01-19T20:26:32.992Z,-0.33
2023-01-19T20:29:06.168Z,-0.31
2023-01-19T20:31:35.875Z,-0.30
2023-01-19T20:34:04.983Z,-0.33
2023-01-19T20:36:32.050Z,-0.33
2023-01-19T20:38:59.412Z,-0.30
2023-01-19T20:41:27.119Z,-0.32
2023-01-19T20:43:53.579Z,-0.33
2023-01-19T20:46:20.104Z,-0.34
2023-01-19T20:48:50.774Z,-0.34
2023-01-19T20:51:18.782Z,-0.34
2023-01-19T20:53:45.178Z,-0.33
2023-01-19T20:56:13.054Z,-0.32
2023-01-19T20:58:40.392Z,-0.32
2023-01-19T21:01:16.627Z,-0.32
2023-01-19T21:03:43.361Z,-0.33
2023-01-19T21:06:11.572Z,-0.32
2023-01-19T21:08:38.101Z,-0.28
2023-01-19T21:11:05.465Z,-0.29
2023-01-19T21:13:32.315Z,-0.29
2023-01-19T21:15:59.281Z,-0.30
2023-01-19T21:18:27.811Z,-0.31
2023-01-19T21:20:57.664Z,-0.31
2023-01-19T21:23:28.233Z,-0.29
2023-01-19T21:25:59.844Z,-0.29
2023-01-19T21:28:27.677Z,-0.29
2023-01-19T21:30:55.010Z,-0.30
2023-01-19T21:33:24.733Z,-0.31
2023-01-19T21:35:51.710Z,-0.29
2023-01-19T21:38:18.653Z,-0.26
2023-01-19T21:40:45.502Z,-0.29
2023-01-19T21:43:15.119Z,-0.25
2023-01-19T21:45:43.174Z,-0.27
2023-01-19T21:48:09.831Z,-0.27
2023-01-19T21:50:36.340Z,-0.30
2023-01-19T21:53:03.163Z,-0.33
2023-01-19T21:55:29.738Z,-0.34
2023-01-19T21:57:56.492Z,-0.37
2023-01-19T22:00:23.040Z,-0.38
2023-01-19T22:03:02.690Z,-0.36
2023-01-19T22:05:30.115Z,-0.40
2023-01-19T22:07:56.726Z,-0.39
2023-01-19T22:10:23.116Z,-0.37
2023-01-19T22:12:49.494Z,-0.34
2023-01-19T22:15:15.931Z,-0.34
2023-01-19T22:17:42.368Z,-0.36
2023-01-19T22:20:09.626Z,-0.30
2023-01-19T22:22:36.016Z,-0.33
2023-01-19T22:25:02.442Z,-0.36
2023-01-19T22:27:32.917Z,-0.32
2023-01-19T22:30:02.389Z,-0.35
2023-01-19T22:32:31.613Z,-0.34
2023-01-19T22:34:57.927Z,-0.34
2023-01-19T22:37:24.333Z,-0.38
2023-01-19T22:39:50.814Z,-0.41
2023-01-19T22:42:17.211Z,-0.38
2023-01-19T22:44:43.646Z,-0.36
2023-01-19T22:47:10.185Z,-0.40
2023-01-19T22:49:36.627Z,-0.38
2023-01-19T22:52:03.071Z,-0.40
2023-01-19T22:54:30.199Z,-0.39
2023-01-19T22:56:56.623Z,-0.39
2023-01-19T22:59:23.236Z,-0.39
2023-01-19T23:01:49.950Z,-0.40
2023-01-19T23:04:16.546Z,-0.37
2023-01-19T23:06:50.957Z,-0.37
2023-01-19T23:09:18.534Z,-0.38
2023-01-19T23:11:50.618Z,-0.37
2023-01-19T23:14:21.996Z,-0.39
2023-01-19T23:16:48.544Z,-0.39
2023-01-19T23:19:17.065Z,-0.38
2023-01-19T23:21:44.453Z,-0.36
2023-01-19T23:24:11.835Z,-0.37
2023-01-19T23:26:38.551Z,-0.39
2023-01-19T23:29:11.575Z,-0.37
2023-01-19T23:31:39.721Z,-0.34
2023-01-19T23:34:08.267Z,-0.38
2023-01-19T23:36:36.564Z,-0.41
2023-01-19T23:39:11.942Z,-0.38
2023-01-19T23:41:38.335Z,-0.40
2023-01-19T23:44:04.970Z,-0.42
2023-01-19T23:46:44.621Z,-0.44
2023-01-19T23:49:12.081Z,-0.43
2023-01-19T23:51:39.546Z,-0.42
2023-01-19T23:54:06.095Z,-0.40
2023-01-19T23:56:35.524Z,-0.43
2023-01-19T23:59:13.320Z,-0.41
